Impacts TAF Board INFO
FOR SITUATIONAL AWARENESS. NOT TO BE USED FOR FLIGHT PLANNING PURPOSES.
IDs:

KMEM - Memphis Intl, TN, US

Issued at 0300 UTC 25 May 2017
Updated at 0301 UTC 25 May 2017
Potential Impact None Slight Moderate High
Time0254Z 25/03Z 25/04Z 25/05Z 25/06Z 25/07Z 25/08Z 25/09Z 25/10Z 25/11Z 25/12Z 25/13Z 25/14Z 25/15Z>>
Type OBS PRVL PRVL PRVL PRVL PRVL PRVL PRVL PRVL PRVL PRVL PRVL PRVL PRVL
VIS 10 >6 >6 >6 >6 >6 >6 >6 >6 >6 >6 >6 >6 >6
CIG -- -- -- -- -- -- -- -- -- -- -- -- -- --
Cover FEW FEW FEW FEW FEW FEW FEW FEW FEW FEW FEW FEW FEW FEW
FltCat VFR VFR VFR VFR VFR VFR VFR VFR VFR VFR VFR VFR VFR VFR
WX -- -- -- -- -- -- -- -- -- -- -- -- -- --
WDir 250 260 260 260 260 260 260 260 260 260 260 260 260 260
WSpd 4 5 5 5 5 5 5 5 5 5 5 5 5 9
WGst -- -- -- -- -- -- -- -- -- -- -- -- -- --

Raw TAF
KMEM 250300Z 2503/2524 26005KT P6SM FEW050 FEW090
  FM251500 26009KT P6SM FEW050 FEW250


Raw METAR
KMEM 250254Z 25004KT 10SM FEW050 14/11 A2965 RMK AO2 SLP037 T01440106 53013
KMEM 250154Z 25005KT 10SM FEW055 FEW085 SCT250 14/11 A2962 RMK AO2 LTG DSNT SW SLP029 T01390111
KMEM 250054Z 24005KT 10SM FEW055 SCT085 SCT180 BKN250 15/12 A2961 RMK AO2 LTG DSNT W SLP024 T01500117
KMEM 242354Z 25007KT 10SM FEW055 BKN085 BKN200 16/11 A2961 RMK AO2 SLP024 60007 T01560111 10222 20150 51010

METAR Board
Radar Display
Forecast Discussion

FOR SITUATIONAL AWARENESS. NOT TO BE USED FOR FLIGHT PLANNING PURPOSES.

Page loaded:  03:01 UTC  |   08:01 PM Pacific  |   09:01 PM Mountain  |   10:01 PM Central  |   11:01 PM Eastern

 

ADVISORIES

FORECASTS

FORECASTS

OBSERVATIONS

USER TOOLS

ABOUT US